Ingliston, United Kingdom

6:12 PM GMT on February 12, 2016 (GMT +0000)
South Queensferry | | Change Station
CLOSE
Current Station
Personal Weather Station
Location: Edinburgh, MIDLOTHIAN
Elevation: 89 ft
Nearby Weather Stations

Elev 89 ft 55.99 °N, 3.41 °W | Updated 2 minutes ago

Scattered Clouds
Scattered Clouds
36.7 °F
Feels Like 37 °F
N
0.0
Wind Variable Wind from South
Gusts 1.6 mph

Today
High -- | Low -- °F
--% Chance of Precip.
Yesterday
High -- | Low -- °F
Precip. -- in
Pressure 29.47 in
Visibility 6.2 miles
Clouds Few 1300 ft
Scattered Clouds 4500 ft
Windchill 37 °F
Dew Point 36 °F
Humidity 99%
Rainfall 0.00 in
Snow Depth Not available.
7:46 AM 5:09 PM
Waxing Crescent, 22% visible
METAR EGPH 121750Z AUTO VRB03KT 9999 FEW013 SCT045 02/01 Q0998
Pressure 29.47 in
Visibility 6.2 miles
Clouds Few 1300 ft
Scattered Clouds 4500 ft
Windchill 37 °F
Dew Point 36 °F
Humidity 99%
Rainfall 0.00 in
Snow Depth Not available.
7:46 AM 5:09 PM
Waxing Crescent, 22% visible
METAR EGPH 121750Z AUTO VRB03KT 9999 FEW013 SCT045 02/01 Q0998

10-Day Weather Forecast

Almanac

Astronomy

Feb. 12, 2016 Rise Set
Actual Time
Civil Twilight
Nautical Twilight
Astronomical Twilight
Moon
Length of Visible Light
Length of Day
Tomorrow will be .
, % of the Moon is Illuminated

Today's Extremes

Country Highs Country Lows

Community

WunderPhotos

Upload Photos

1,892,359 photos uploaded!

WunderBlog® & News

Nearby

Air Quality

  Air Quality AQ Index Pollutant
Not available.

Snow Depth

Station Depth Elevation

Earthquake Activity

City Distance Mag. Time & Date
Minimum magnitude displayed is 2.5.

Coastal Water Temperatures

Place Temperature

Stations

Nearby Weather Stations

Station Location Temp. Windchill Dew Point Humidity Wind Precip. Elev Updated Type